createdAt,value
2022-08-27T00:00:55.433Z,99884.13
2022-08-27T00:01:57.759Z,99880.47
2022-08-27T00:03:00.282Z,99885.28
2022-08-27T00:04:06.104Z,99887.28
2022-08-27T00:05:13.200Z,99887.28
2022-08-27T00:06:17.576Z,99887.75
2022-08-27T00:07:28.581Z,99888.91
2022-08-27T00:08:31.204Z,99887.28
2022-08-27T00:09:36.361Z,99880.03
2022-08-27T00:10:40.779Z,99884.00
2022-08-27T00:11:43.032Z,99883.19
2022-08-27T00:12:48.560Z,99882.00
2022-08-27T00:13:51.352Z,99875.56
2022-08-27T00:14:55.894Z,99877.22
2022-08-27T00:16:01.293Z,99876.72
2022-08-27T00:17:05.642Z,99884.00
2022-08-27T00:18:11.482Z,99874.75
2022-08-27T00:19:13.811Z,99879.19
2022-08-27T00:20:21.673Z,99875.56
2022-08-27T00:21:25.407Z,99880.03
2022-08-27T00:22:28.008Z,99874.75
2022-08-27T00:23:31.740Z,99880.38
2022-08-27T00:24:34.566Z,99884.81
2022-08-27T00:25:40.737Z,99873.13
2022-08-27T00:26:43.516Z,99867.50
2022-08-27T00:27:45.853Z,99872.28
2022-08-27T00:28:48.130Z,99874.28
2022-08-27T00:29:50.743Z,99869.47
2022-08-27T00:30:53.293Z,99873.47
2022-08-27T00:32:00.005Z,99872.63
2022-08-27T00:33:04.450Z,99879.88
2022-08-27T00:34:07.565Z,99879.88
2022-08-27T00:35:11.508Z,99877.88
2022-08-27T00:36:17.132Z,99884.34
2022-08-27T00:37:20.431Z,99882.34
2022-08-27T00:38:23.519Z,99884.34
2022-08-27T00:39:25.920Z,99885.16
2022-08-27T00:40:28.651Z,99887.97
2022-08-27T00:41:30.877Z,99890.78
2022-08-27T00:42:33.200Z,99887.97
2022-08-27T00:43:48.679Z,99889.59
2022-08-27T00:44:51.009Z,99886.81
2022-08-27T00:46:02.111Z,99880.84
2022-08-27T00:47:13.633Z,99880.03
2022-08-27T00:48:18.302Z,99884.47
2022-08-27T00:49:27.975Z,99884.47
2022-08-27T00:50:38.371Z,99883.28
2022-08-27T00:51:51.079Z,99887.75
2022-08-27T00:52:58.448Z,99886.94
2022-08-27T00:54:05.076Z,99877.69
2022-08-27T00:55:13.146Z,99882.97
2022-08-27T00:56:20.904Z,99886.59
2022-08-27T00:57:23.518Z,99887.41
2022-08-27T00:58:37.244Z,99880.16
2022-08-27T00:59:42.085Z,99884.59
2022-08-27T01:00:48.578Z,99893.00
2022-08-27T01:02:11.124Z,99890.22
2022-08-27T01:03:16.387Z,99890.22
2022-08-27T01:04:18.561Z,99888.25
2022-08-27T01:05:25.557Z,99885.78
2022-08-27T01:06:35.347Z,99893.84
2022-08-27T01:07:41.201Z,99883.78
2022-08-27T01:08:57.361Z,99883.78
2022-08-27T01:10:02.574Z,99880.97
2022-08-27T01:11:05.398Z,99887.41
2022-08-27T01:12:08.532Z,99885.44
2022-08-27T01:13:13.369Z,99879.81
2022-08-27T01:14:16.494Z,99883.78
2022-08-27T01:15:20.288Z,99888.25
2022-08-27T01:16:26.990Z,99873.34
2022-08-27T01:17:29.598Z,99878.97
2022-08-27T01:18:35.326Z,99877.81
2022-08-27T01:19:43.854Z,99881.47
2022-08-27T01:20:56.808Z,99875.84
2022-08-27T01:22:20.353Z,99870.22
2022-08-27T01:23:48.080Z,99875.84
2022-08-27T01:24:55.895Z,99877.47
2022-08-27T01:26:00.052Z,99874.66
2022-08-27T01:27:06.461Z,99877.47
2022-08-27T01:28:16.530Z,99873.84
2022-08-27T01:29:21.863Z,99885.88
2022-08-27T01:30:24.252Z,99883.91
2022-08-27T01:31:27.237Z,99877.47
2022-08-27T01:32:32.998Z,99880.28
2022-08-27T01:33:35.293Z,99882.28
2022-08-27T01:34:38.714Z,99878.31
2022-08-27T01:35:42.423Z,99889.53
2022-08-27T01:36:44.590Z,99887.53
2022-08-27T01:37:52.232Z,99886.72
2022-08-27T01:38:55.211Z,99890.34
2022-08-27T01:40:00.018Z,99893.16
2022-08-27T01:41:02.814Z,99892.34
2022-08-27T01:42:12.177Z,99895.97
2022-08-27T01:43:14.379Z,99887.88
2022-08-27T01:44:20.476Z,99891.50
2022-08-27T01:45:29.685Z,99888.69
2022-08-27T01:46:31.927Z,99895.16
2022-08-27T01:47:38.624Z,99887.88
2022-08-27T01:48:40.803Z,99891.50
2022-08-27T01:49:43.193Z,99886.25
2022-08-27T01:50:46.604Z,99890.69
2022-08-27T01:51:49.557Z,99891.03
2022-08-27T01:52:55.389Z,99882.28
2022-08-27T01:54:00.693Z,99873.03
2022-08-27T01:55:05.773Z,99876.66
2022-08-27T01:56:08.351Z,99883.06
2022-08-27T01:57:10.713Z,99881.09
2022-08-27T01:58:13.256Z,99872.69
2022-08-27T01:59:17.898Z,99873.50
2022-08-27T02:00:29.797Z,99875.13
2022-08-27T02:01:32.119Z,99871.53
2022-08-27T02:02:34.371Z,99875.94
2022-08-27T02:03:37.484Z,99875.13
2022-08-27T02:04:39.882Z,99881.56
2022-08-27T02:05:45.152Z,99874.34
2022-08-27T02:06:47.569Z,99881.56
2022-08-27T02:07:50.212Z,99875.59
2022-08-27T02:08:52.370Z,99869.97
2022-08-27T02:09:54.621Z,99873.63
2022-08-27T02:10:57.062Z,99868.81
2022-08-27T02:12:03.990Z,99866.84
2022-08-27T02:13:07.922Z,99871.28
2022-08-27T02:14:13.312Z,99866.50
2022-08-27T02:15:16.085Z,99875.38
2022-08-27T02:16:24.653Z,99866.16
2022-08-27T02:17:26.928Z,99868.97
2022-08-27T02:18:29.109Z,99870.63
2022-08-27T02:19:31.516Z,99866.66
2022-08-27T02:20:34.847Z,99861.84
2022-08-27T02:21:37.144Z,99866.31
2022-08-27T02:22:47.576Z,99861.84
2022-08-27T02:23:51.446Z,99857.03
2022-08-27T02:24:54.115Z,99860.69
2022-08-27T02:25:56.289Z,99861.50
2022-08-27T02:26:59.136Z,99851.91
2022-08-27T02:28:01.979Z,99851.91
2022-08-27T02:29:04.420Z,99856.38
2022-08-27T02:30:07.187Z,99856.38
2022-08-27T02:31:09.846Z,99858.03
2022-08-27T02:32:23.967Z,99858.03
2022-08-27T02:33:34.385Z,99854.00
2022-08-27T02:34:36.609Z,99861.28
2022-08-27T02:35:43.980Z,99854.00
2022-08-27T02:36:47.087Z,99857.66
2022-08-27T02:37:49.833Z,99857.66
2022-08-27T02:38:52.015Z,99868.91
2022-08-27T02:39:54.389Z,99854.84
2022-08-27T02:40:56.635Z,99852.03
2022-08-27T02:41:58.899Z,99852.03
2022-08-27T02:43:01.097Z,99852.50
2022-08-27T02:44:04.170Z,99848.88
2022-08-27T02:45:13.863Z,99852.50
2022-08-27T02:46:16.174Z,99846.88
2022-08-27T02:47:18.562Z,99847.72
2022-08-27T02:48:21.050Z,99847.72
2022-08-27T02:49:23.414Z,99841.25
2022-08-27T02:50:27.617Z,99840.44
2022-08-27T02:51:29.935Z,99844.91
2022-08-27T02:52:32.284Z,99841.25
2022-08-27T02:53:36.487Z,99843.25
2022-08-27T02:54:38.907Z,99839.28
2022-08-27T02:55:41.313Z,99842.09
2022-08-27T02:56:44.222Z,99846.88
2022-08-27T02:57:46.601Z,99844.06
2022-08-27T02:58:49.734Z,99851.34
2022-08-27T02:59:55.765Z,99850.19
2022-08-27T03:00:58.135Z,99845.38
2022-08-27T03:02:01.472Z,99842.56
2022-08-27T03:03:03.924Z,99836.13
2022-08-27T03:04:06.224Z,99839.75
2022-08-27T03:05:09.917Z,99839.75
2022-08-27T03:06:12.676Z,99839.75
2022-08-27T03:07:19.069Z,99843.41
2022-08-27T03:08:21.418Z,99841.41
2022-08-27T03:09:23.708Z,99841.41
2022-08-27T03:10:25.969Z,99838.59
2022-08-27T03:11:28.240Z,99838.22
2022-08-27T03:12:30.444Z,99832.97
2022-08-27T03:13:36.782Z,99842.22
2022-08-27T03:14:41.236Z,99836.63
2022-08-27T03:15:43.614Z,99839.44
2022-08-27T03:16:46.213Z,99840.22
2022-08-27T03:18:07.177Z,99837.78
2022-08-27T03:19:10.676Z,99846.66
2022-08-27T03:20:12.896Z,99839.44
2022-08-27T03:21:23.227Z,99842.22
2022-08-27T03:22:26.220Z,99846.66
2022-08-27T03:23:35.534Z,99847.84
2022-08-27T03:24:37.729Z,99850.66
2022-08-27T03:25:54.394Z,99847.84
2022-08-27T03:26:56.629Z,99855.78
2022-08-27T03:27:58.795Z,99858.25
2022-08-27T03:29:01.041Z,99857.44
2022-08-27T03:30:09.937Z,99865.88
2022-08-27T03:31:22.757Z,99864.22
2022-08-27T03:32:28.087Z,99861.41
2022-08-27T03:33:33.579Z,99861.41
2022-08-27T03:34:35.752Z,99854.16
2022-08-27T03:35:37.939Z,99864.22
2022-08-27T03:36:40.128Z,99864.59
2022-08-27T03:37:42.611Z,99857.81
2022-08-27T03:38:44.821Z,99867.03
2022-08-27T03:39:47.006Z,99856.97
2022-08-27T03:40:50.325Z,99860.25
2022-08-27T03:41:54.908Z,99857.81
2022-08-27T03:42:58.814Z,99860.59
2022-08-27T03:44:01.664Z,99863.41
2022-08-27T03:45:07.601Z,99855.00
2022-08-27T03:46:15.271Z,99858.59
2022-08-27T03:47:18.197Z,99852.19
2022-08-27T03:48:20.726Z,99855.00
2022-08-27T03:49:23.356Z,99861.41
2022-08-27T03:50:29.029Z,99867.03
2022-08-27T03:51:31.209Z,99856.59
2022-08-27T03:52:35.559Z,99861.41
2022-08-27T03:53:39.654Z,99864.22
2022-08-27T03:54:42.207Z,99863.41
2022-08-27T03:55:46.718Z,99863.41
2022-08-27T03:56:49.195Z,99863.41
2022-08-27T03:57:51.356Z,99864.22
2022-08-27T03:58:53.670Z,99862.22
2022-08-27T03:59:57.111Z,99865.88
2022-08-27T04:01:00.197Z,99861.41
2022-08-27T04:02:03.110Z,99864.22
2022-08-27T04:03:09.456Z,99870.66
2022-08-27T04:04:13.192Z,99861.91
2022-08-27T04:05:17.698Z,99865.88
2022-08-27T04:06:19.885Z,99869.50
2022-08-27T04:07:22.057Z,99867.53
2022-08-27T04:08:25.638Z,99863.06
2022-08-27T04:09:27.888Z,99862.22
2022-08-27T04:10:32.797Z,99870.34
2022-08-27T04:11:37.171Z,99872.31
2022-08-27T04:12:39.726Z,99870.34
2022-08-27T04:13:41.946Z,99867.03
2022-08-27T04:14:44.114Z,99871.94
2022-08-27T04:15:49.891Z,99865.88
2022-08-27T04:16:54.426Z,99870.34
2022-08-27T04:17:59.587Z,99872.31
2022-08-27T04:19:06.405Z,99875.94
2022-08-27T04:20:33.849Z,99870.34
2022-08-27T04:21:33.607Z,99876.75
2022-08-27T04:22:36.447Z,99871.13
2022-08-27T04:23:40.084Z,99875.94
2022-08-27T04:24:43.079Z,99871.13
2022-08-27T04:25:45.800Z,99874.75
2022-08-27T04:26:48.113Z,99868.34
2022-08-27T04:27:50.338Z,99869.97
2022-08-27T04:28:52.608Z,99877.56
2022-08-27T04:29:58.860Z,99873.94
2022-08-27T04:31:02.774Z,99866.34
2022-08-27T04:32:05.271Z,99871.94
2022-08-27T04:33:09.823Z,99873.59
2022-08-27T04:34:12.050Z,99869.13
2022-08-27T04:35:14.254Z,99869.13
2022-08-27T04:36:17.670Z,99871.94
2022-08-27T04:37:23.111Z,99872.31
2022-08-27T04:38:25.925Z,99872.78
2022-08-27T04:39:29.378Z,99872.78
2022-08-27T04:40:52.020Z,99877.56
2022-08-27T04:42:00.118Z,99877.56
2022-08-27T04:43:02.335Z,99879.56
2022-08-27T04:44:08.270Z,99887.19
2022-08-27T04:45:13.820Z,99879.94
2022-08-27T04:46:31.017Z,99882.72
2022-08-27T04:47:33.366Z,99884.38
2022-08-27T04:48:35.750Z,99869.84
2022-08-27T04:49:41.523Z,99879.09
2022-08-27T04:50:47.095Z,99883.91
2022-08-27T04:51:49.693Z,99887.50
2022-08-27T04:52:51.880Z,99880.28
2022-08-27T04:53:54.226Z,99879.44
2022-08-27T04:54:56.559Z,99875.81
2022-08-27T04:56:00.019Z,99887.06
2022-08-27T04:57:03.949Z,99876.28
2022-08-27T04:58:06.153Z,99869.34
2022-08-27T04:59:10.581Z,99877.78
2022-08-27T05:00:13.445Z,99880.59
2022-08-27T05:01:36.545Z,99877.34
2022-08-27T05:02:39.276Z,99870.19
2022-08-27T05:03:41.462Z,99876.63
2022-08-27T05:04:44.083Z,99874.97
2022-08-27T05:05:47.541Z,99880.28
2022-08-27T05:06:50.816Z,99865.38
2022-08-27T05:07:56.950Z,99876.63
2022-08-27T05:08:59.143Z,99876.63
2022-08-27T05:10:01.362Z,99871.00
2022-08-27T05:11:07.304Z,99872.66
2022-08-27T05:12:09.863Z,99871.00
2022-08-27T05:13:16.187Z,99871.84
2022-08-27T05:14:19.885Z,99867.84
2022-08-27T05:15:22.187Z,99867.84
2022-08-27T05:16:25.564Z,99868.69
2022-08-27T05:17:31.394Z,99871.50
2022-08-27T05:18:38.146Z,99865.88
2022-08-27T05:19:50.125Z,99869.50
2022-08-27T05:20:52.362Z,99863.88
2022-08-27T05:21:55.025Z,99873.94
2022-08-27T05:22:57.749Z,99867.53
2022-08-27T05:24:03.876Z,99869.13
2022-08-27T05:25:06.630Z,99863.88
2022-08-27T05:26:11.674Z,99868.34
2022-08-27T05:27:13.863Z,99871.13
2022-08-27T05:28:17.653Z,99862.72
2022-08-27T05:29:20.504Z,99873.16
2022-08-27T05:30:22.688Z,99869.50
2022-08-27T05:31:24.940Z,99871.50
2022-08-27T05:32:27.251Z,99874.31
2022-08-27T05:33:30.544Z,99868.69
2022-08-27T05:34:32.746Z,99862.22
2022-08-27T05:35:42.571Z,99867.53
2022-08-27T05:36:48.596Z,99870.66
2022-08-27T05:37:51.460Z,99869.84
2022-08-27T05:38:55.847Z,99872.66
2022-08-27T05:39:58.202Z,99864.22
2022-08-27T05:41:13.003Z,99865.38
2022-08-27T05:42:15.464Z,99859.78
2022-08-27T05:43:18.616Z,99860.13
2022-08-27T05:45:48.871Z,99870.06
2022-08-27T05:46:51.247Z,99862.44
2022-08-27T05:47:53.420Z,99867.59
2022-08-27T05:48:58.238Z,99871.22
2022-08-27T05:50:07.031Z,99868.78
2022-08-27T05:51:17.703Z,99872.75
2022-08-27T05:52:30.196Z,99862.66
2022-08-27T05:53:32.371Z,99865.47
2022-08-27T05:54:34.587Z,99859.41
2022-08-27T05:55:45.182Z,99874.56
2022-08-27T05:56:50.004Z,99869.75
2022-08-27T05:57:52.317Z,99868.16
2022-08-27T05:59:16.513Z,99871.75
2022-08-27T06:00:37.518Z,99877.72
2022-08-27T06:01:43.927Z,99873.28
2022-08-27T06:02:46.889Z,99878.41
2022-08-27T06:03:49.352Z,99872.78
2022-08-27T06:04:51.719Z,99882.41
2022-08-27T06:06:01.730Z,99875.94
2022-08-27T06:07:04.614Z,99881.56
2022-08-27T06:08:06.949Z,99886.38
2022-08-27T06:09:12.143Z,99885.56
2022-08-27T06:10:14.528Z,99884.72
2022-08-27T06:11:18.212Z,99889.53
2022-08-27T06:12:20.566Z,99887.88
2022-08-27T06:13:31.315Z,99881.09
2022-08-27T06:14:33.703Z,99883.91
2022-08-27T06:15:36.324Z,99884.28
2022-08-27T06:16:39.656Z,99886.25
2022-08-27T06:17:41.885Z,99893.84
2022-08-27T06:18:47.156Z,99885.44
2022-08-27T06:19:49.343Z,99890.22
2022-08-27T06:20:51.522Z,99891.03
2022-08-27T06:22:01.319Z,99886.59
2022-08-27T06:23:12.425Z,99890.22
2022-08-27T06:24:14.650Z,99882.97
2022-08-27T06:25:16.972Z,99893.84
2022-08-27T06:26:20.804Z,99891.03
2022-08-27T06:27:23.005Z,99889.88
2022-08-27T06:28:30.642Z,99893.50
2022-08-27T06:29:35.342Z,99893.50
2022-08-27T06:30:37.703Z,99891.84
2022-08-27T06:31:40.748Z,99901.59
2022-08-27T06:32:42.969Z,99900.78
2022-08-27T06:33:46.527Z,99896.81
2022-08-27T06:34:48.804Z,99895.97
2022-08-27T06:35:50.993Z,99897.59
2022-08-27T06:36:56.481Z,99899.25
2022-08-27T06:38:01.318Z,99902.88
2022-08-27T06:39:04.076Z,99894.44
2022-08-27T06:40:09.403Z,99901.72
2022-08-27T06:41:16.421Z,99894.59
2022-08-27T06:42:26.205Z,99893.75
2022-08-27T06:43:31.571Z,99901.00
2022-08-27T06:44:34.397Z,99899.84
2022-08-27T06:45:40.088Z,99902.66
2022-08-27T06:46:45.221Z,99889.44
2022-08-27T06:47:50.146Z,99893.91
2022-08-27T06:48:54.162Z,99905.63
2022-08-27T06:49:57.762Z,99898.03
2022-08-27T06:51:08.279Z,99895.22
2022-08-27T06:52:10.486Z,99901.31
2022-08-27T06:53:12.853Z,99905.78
2022-08-27T06:54:16.962Z,99895.69
2022-08-27T06:55:19.125Z,99899.31
2022-08-27T06:56:22.515Z,99902.97
2022-08-27T06:57:28.057Z,99901.78
2022-08-27T06:58:30.265Z,99908.25
2022-08-27T06:59:33.484Z,99897.81
2022-08-27T07:00:36.420Z,99905.88
2022-08-27T07:01:40.930Z,99903.06
2022-08-27T07:02:44.213Z,99904.72
2022-08-27T07:03:47.129Z,99906.38
2022-08-27T07:04:54.025Z,99902.41
2022-08-27T07:06:05.628Z,99902.41
2022-08-27T07:07:10.603Z,99904.06
2022-08-27T07:08:13.372Z,99912.47
2022-08-27T07:09:18.917Z,99915.28
2022-08-27T07:10:24.858Z,99912.47
2022-08-27T07:11:29.522Z,99904.84
2022-08-27T07:12:31.696Z,99906.50
2022-08-27T07:13:34.333Z,99915.28
2022-08-27T07:14:38.189Z,99912.47
2022-08-27T07:15:41.909Z,99916.09
2022-08-27T07:16:45.366Z,99913.28
2022-08-27T07:17:50.751Z,99919.72
2022-08-27T07:18:55.640Z,99926.53
2022-08-27T07:20:00.988Z,99924.88
2022-08-27T07:21:08.555Z,99922.88
2022-08-27T07:22:11.049Z,99919.25
2022-08-27T07:23:13.607Z,99923.22
2022-08-27T07:24:15.808Z,99922.41
2022-08-27T07:26:39.839Z,99924.75
2022-08-27T07:27:42.210Z,99923.09
2022-08-27T07:28:45.071Z,99927.56
2022-08-27T07:29:47.725Z,99927.06
2022-08-27T07:30:50.072Z,99925.44
2022-08-27T07:31:52.495Z,99925.44
2022-08-27T07:32:54.844Z,99922.97
2022-08-27T07:33:57.118Z,99916.53
2022-08-27T07:34:59.570Z,99924.97
2022-08-27T07:36:02.112Z,99926.97
2022-08-27T07:37:07.043Z,99918.84
2022-08-27T07:38:11.936Z,99920.84
2022-08-27T07:39:16.757Z,99920.84
2022-08-27T07:40:25.421Z,99917.22
2022-08-27T07:41:32.301Z,99923.13
2022-08-27T07:42:53.617Z,99917.53
2022-08-27T07:44:19.108Z,99924.00
2022-08-27T07:45:22.175Z,99920.31
2022-08-27T07:46:25.414Z,99921.53
2022-08-27T07:47:27.747Z,99921.53
2022-08-27T07:48:31.056Z,99927.13
2022-08-27T07:49:35.500Z,99922.69
2022-08-27T07:50:43.442Z,99917.06
2022-08-27T07:51:45.892Z,99922.69
2022-08-27T07:52:48.062Z,99923.03
2022-08-27T07:53:51.519Z,99929.47
2022-08-27T07:54:54.465Z,99928.66
2022-08-27T07:56:02.690Z,99937.88
2022-08-27T07:57:05.069Z,99932.97
2022-08-27T07:58:07.384Z,99926.16
2022-08-27T07:59:14.222Z,99937.41
2022-08-27T08:00:16.444Z,99937.41
2022-08-27T08:01:19.407Z,99939.41
2022-08-27T08:02:27.032Z,99940.19
2022-08-27T08:03:32.391Z,99944.22
2022-08-27T08:04:34.593Z,99943.38
2022-08-27T08:05:36.923Z,99946.53
2022-08-27T08:06:39.551Z,99941.75
2022-08-27T08:07:41.793Z,99938.09
2022-08-27T08:08:45.209Z,99946.53
2022-08-27T08:09:47.469Z,99943.25
2022-08-27T08:10:50.406Z,99948.88
2022-08-27T08:11:53.145Z,99943.25
2022-08-27T08:12:55.393Z,99942.06
2022-08-27T08:14:00.559Z,99945.22
2022-08-27T08:15:04.275Z,99943.56
2022-08-27T08:16:07.098Z,99946.72
2022-08-27T08:17:10.564Z,99946.38
2022-08-27T08:18:14.161Z,99944.75
2022-08-27T08:19:16.817Z,99946.72
2022-08-27T08:20:27.528Z,99945.09
2022-08-27T08:21:38.770Z,99938.31
2022-08-27T08:22:40.962Z,99948.72
2022-08-27T08:23:46.286Z,99946.72
2022-08-27T08:24:48.475Z,99943.91
2022-08-27T08:25:52.598Z,99942.28
2022-08-27T08:26:54.781Z,99947.09
2022-08-27T08:27:56.969Z,99945.09
2022-08-27T08:29:05.338Z,99949.09
2022-08-27T08:30:08.555Z,99949.09
2022-08-27T08:31:13.900Z,99942.28
2022-08-27T08:32:17.372Z,99947.09
2022-08-27T08:33:19.604Z,99950.69
2022-08-27T08:34:24.135Z,99942.28
2022-08-27T08:35:27.294Z,99949.53
2022-08-27T08:36:43.898Z,99949.88
2022-08-27T08:38:02.578Z,99949.88
2022-08-27T08:39:04.773Z,99951.53
2022-08-27T08:40:07.553Z,99957.97
2022-08-27T08:41:29.820Z,99955.16
2022-08-27T08:42:51.618Z,99953.50
2022-08-27T08:43:55.771Z,99960.78
2022-08-27T08:45:01.399Z,99959.63
2022-08-27T08:47:05.131Z,99960.78
2022-08-27T08:48:13.000Z,99960.78
2022-08-27T08:49:50.836Z,99957.97
2022-08-27T08:51:02.923Z,99959.63
2022-08-27T08:52:37.418Z,99964.75
2022-08-27T08:53:51.043Z,99961.94
2022-08-27T08:54:59.408Z,99967.53
2022-08-27T08:56:05.325Z,99960.31
2022-08-27T08:57:22.907Z,99963.94
2022-08-27T08:58:52.888Z,99964.75
2022-08-27T09:00:04.091Z,99969.19
2022-08-27T09:01:09.392Z,99959.13
2022-08-27T09:02:14.568Z,99970.34
2022-08-27T09:03:17.065Z,99967.09
2022-08-27T09:04:19.332Z,99971.88
2022-08-27T09:05:24.091Z,99968.25
2022-08-27T09:06:45.657Z,99965.44
2022-08-27T09:08:21.626Z,99970.25
2022-08-27T09:09:30.453Z,99962.13
2022-08-27T09:10:55.327Z,99971.75
2022-08-27T09:12:06.639Z,99971.59
2022-08-27T09:13:20.958Z,99968.31
2022-08-27T09:14:34.018Z,99971.47
2022-08-27T09:15:38.256Z,99975.78
2022-08-27T09:16:41.299Z,99976.94
2022-08-27T09:17:46.315Z,99975.63
2022-08-27T09:18:52.767Z,99980.78
2022-08-27T09:19:55.473Z,99980.28
2022-08-27T09:21:27.914Z,99978.97
2022-08-27T09:23:01.622Z,99983.28
2022-08-27T09:24:47.320Z,99983.16
2022-08-27T09:25:49.650Z,99984.66
2022-08-27T09:26:52.488Z,99983.84
2022-08-27T09:28:02.393Z,99979.72
2022-08-27T09:29:26.638Z,99980.41
2022-08-27T09:30:31.671Z,99985.53
2022-08-27T09:31:40.737Z,99984.72
2022-08-27T09:32:52.163Z,99990.69
2022-08-27T09:33:56.764Z,99991.00
2022-08-27T09:35:04.966Z,99982.13
2022-08-27T09:36:18.337Z,99989.69
2022-08-27T09:37:34.449Z,99985.25
2022-08-27T09:38:41.893Z,99982.47
2022-08-27T09:39:59.450Z,99986.41
2022-08-27T09:41:14.769Z,99980.81
2022-08-27T09:42:48.744Z,99987.56
2022-08-27T09:44:10.459Z,99987.06
2022-08-27T09:45:17.325Z,99986.25
2022-08-27T09:46:21.850Z,99982.66
2022-08-27T09:47:27.046Z,99986.63
2022-08-27T09:48:35.125Z,99987.75
2022-08-27T09:49:38.677Z,99989.75
2022-08-27T09:50:53.007Z,99994.84
2022-08-27T09:51:56.401Z,99981.63
2022-08-27T09:53:00.220Z,99990.03
2022-08-27T09:54:04.442Z,99991.22
2022-08-27T09:55:07.156Z,99987.59
2022-08-27T09:56:21.161Z,99980.34
2022-08-27T09:57:43.636Z,99975.91
2022-08-27T09:59:19.915Z,99987.94
2022-08-27T10:00:40.468Z,99992.38
2022-08-27T10:02:14.625Z,99980.34
2022-08-27T10:03:22.715Z,99983.47
2022-08-27T10:04:51.469Z,99985.13
2022-08-27T10:05:54.683Z,99981.84
2022-08-27T10:06:56.902Z,99984.66
2022-08-27T10:08:02.887Z,99979.03
2022-08-27T10:09:30.666Z,99984.97
2022-08-27T10:10:43.522Z,99988.97
2022-08-27T10:11:59.682Z,99983.00
2022-08-27T10:13:10.235Z,99989.78
2022-08-27T10:14:31.435Z,99989.78
2022-08-27T10:16:21.941Z,99985.31
2022-08-27T10:17:57.374Z,99992.06
2022-08-27T10:19:29.805Z,99992.06
2022-08-27T10:20:37.359Z,99983.19
2022-08-27T10:21:50.108Z,99986.00
2022-08-27T10:23:06.076Z,99993.56
2022-08-27T10:24:26.468Z,99986.00
2022-08-27T10:25:58.598Z,99988.81
2022-08-27T10:27:27.540Z,99986.81
2022-08-27T10:28:44.105Z,99990.47
2022-08-27T10:30:10.194Z,99985.16
2022-08-27T10:31:22.270Z,99986.00
2022-08-27T10:32:52.771Z,99986.00
2022-08-27T10:34:12.383Z,99987.66
2022-08-27T10:35:19.875Z,99987.66
2022-08-27T10:36:39.314Z,99987.66
2022-08-27T10:37:58.772Z,99990.47
2022-08-27T10:39:37.935Z,99986.00
2022-08-27T10:40:54.848Z,99990.47
2022-08-27T10:42:26.421Z,99988.47
2022-08-27T10:43:54.955Z,99990.91
2022-08-27T10:45:30.911Z,99985.31
2022-08-27T10:46:50.325Z,99990.13
2022-08-27T10:48:25.869Z,99994.56
2022-08-27T10:49:40.056Z,99992.56
2022-08-27T10:51:05.344Z,99995.38
2022-08-27T10:52:29.358Z,99988.97
2022-08-27T10:53:44.670Z,99992.56
2022-08-27T10:54:52.577Z,99986.97
2022-08-27T10:56:08.947Z,99991.41
2022-08-27T10:57:45.507Z,99998.19
2022-08-27T10:59:11.952Z,99994.22
2022-08-27T11:00:18.747Z,99995.88
2022-08-27T11:01:52.554Z,99993.06
2022-08-27T11:03:02.362Z,100001.16
2022-08-27T11:04:18.795Z,99995.53
2022-08-27T11:05:27.118Z,99998.34
2022-08-27T11:06:53.366Z,99996.00
2022-08-27T11:08:01.831Z,99990.03
2022-08-27T11:09:24.866Z,99992.84
2022-08-27T11:10:30.980Z,99989.75
2022-08-27T11:13:17.989Z,99986.25
2022-08-27T11:14:33.023Z,99985.13
2022-08-27T11:15:38.753Z,99994.84
2022-08-27T11:16:45.953Z,99984.44
2022-08-27T11:18:04.759Z,99986.06
2022-08-27T11:19:17.861Z,99991.34
2022-08-27T11:20:27.301Z,99989.03
2022-08-27T11:22:06.972Z,99988.69
2022-08-27T11:23:30.237Z,99983.56
2022-08-27T11:24:43.913Z,99990.16
2022-08-27T11:26:12.579Z,99991.75
2022-08-27T11:27:19.597Z,99995.06
2022-08-27T11:28:31.537Z,99987.94
2022-08-27T11:29:53.574Z,99994.06
2022-08-27T11:31:28.299Z,99997.34
2022-08-27T11:32:43.679Z,99993.03
2022-08-27T11:34:15.573Z,99997.97
2022-08-27T11:35:46.859Z,99997.63
2022-08-27T11:37:38.373Z,99995.78
2022-08-27T11:39:04.704Z,99995.09
2022-08-27T11:40:25.304Z,99993.94
2022-08-27T11:41:30.212Z,99992.41
2022-08-27T11:43:15.340Z,99998.19
2022-08-27T11:44:22.366Z,99993.03
2022-08-27T11:45:51.980Z,99997.50
2022-08-27T11:47:20.850Z,99996.81
2022-08-27T11:48:26.676Z,99993.66
2022-08-27T11:49:43.103Z,99995.78
2022-08-27T11:51:00.646Z,99997.44
2022-08-27T11:52:09.712Z,99997.94
2022-08-27T11:53:11.938Z,99997.56
2022-08-27T11:54:27.854Z,100003.66
2022-08-27T11:55:36.828Z,100003.31
2022-08-27T11:56:43.451Z,99997.38
2022-08-27T11:57:47.337Z,99999.84
2022-08-27T11:58:53.375Z,100001.50
2022-08-27T12:00:18.540Z,99995.53
2022-08-27T12:01:30.907Z,99993.19
2022-08-27T12:02:33.172Z,99994.84
2022-08-27T12:03:37.056Z,99994.50
2022-08-27T12:04:42.220Z,99991.38
2022-08-27T12:06:08.762Z,99998.59
2022-08-27T12:07:14.025Z,99999.44
2022-08-27T12:08:22.031Z,99985.84
2022-08-27T12:09:24.766Z,99991.47
2022-08-27T12:10:44.056Z,99987.50
2022-08-27T12:12:25.605Z,99981.88
2022-08-27T12:13:42.716Z,99993.63
2022-08-27T12:15:17.828Z,99980.03
2022-08-27T12:16:31.214Z,99984.47
2022-08-27T12:17:58.492Z,99977.34
2022-08-27T12:19:43.195Z,99979.00
2022-08-27T12:21:01.650Z,99976.66
2022-08-27T12:22:34.759Z,99984.75
2022-08-27T12:24:15.121Z,99979.59
2022-08-27T12:25:22.162Z,99977.63
2022-08-27T12:26:39.904Z,99982.91
2022-08-27T12:27:42.127Z,99978.09
2022-08-27T12:28:44.295Z,99980.09
2022-08-27T12:29:51.207Z,99974.94
2022-08-27T12:30:54.753Z,99980.22
2022-08-27T12:32:07.098Z,99974.59
2022-08-27T12:33:26.458Z,99975.41
2022-08-27T12:34:29.757Z,99979.03
2022-08-27T12:35:43.008Z,99977.88
2022-08-27T12:36:49.111Z,99977.88
2022-08-27T12:38:42.909Z,99977.06
2022-08-27T12:39:52.692Z,99985.16
2022-08-27T12:41:00.285Z,99983.50
2022-08-27T12:42:02.525Z,99975.91
2022-08-27T12:43:13.451Z,99978.72
2022-08-27T12:44:25.605Z,99977.88
2022-08-27T12:45:28.055Z,99980.69
2022-08-27T12:46:33.111Z,99979.03
2022-08-27T12:47:40.934Z,99985.50
2022-08-27T12:49:10.017Z,99974.59
2022-08-27T12:50:26.338Z,99979.03
2022-08-27T12:51:34.912Z,99981.03
2022-08-27T12:53:07.053Z,99981.84
2022-08-27T12:54:42.659Z,99979.88
2022-08-27T12:56:03.010Z,99972.59
2022-08-27T12:57:33.145Z,99975.41
2022-08-27T12:58:40.267Z,99979.38
2022-08-27T13:00:01.843Z,99975.75
2022-08-27T13:01:24.635Z,99976.94
2022-08-27T13:03:09.434Z,99980.91
2022-08-27T13:04:28.788Z,99981.25
2022-08-27T13:05:42.918Z,99978.44
2022-08-27T13:06:45.962Z,99980.44
2022-08-27T13:07:53.384Z,99985.22
2022-08-27T13:08:59.426Z,99978.78
2022-08-27T13:10:31.180Z,99981.59
2022-08-27T13:11:56.620Z,99987.22
2022-08-27T13:13:17.160Z,99986.38
2022-08-27T13:14:20.868Z,99976.78
2022-08-27T13:15:23.091Z,99977.63
2022-08-27T13:16:25.381Z,99975.63
2022-08-27T13:17:27.904Z,99975.63
2022-08-27T13:18:30.606Z,99973.63
2022-08-27T13:19:57.971Z,99973.31
2022-08-27T13:21:16.905Z,99978.94
2022-08-27T13:22:39.988Z,99975.75
2022-08-27T13:23:59.412Z,99973.75
2022-08-27T13:25:01.816Z,99978.56
2022-08-27T13:26:10.946Z,99974.25
2022-08-27T13:27:13.549Z,99981.53
2022-08-27T13:28:26.429Z,99971.44
2022-08-27T13:29:28.920Z,99980.34
2022-08-27T13:30:36.217Z,99981.97